Time;durP1;ratioP1;P1;durP2;ratioP2;P2;SDS_P1;SDS_P2;PMS_P1;PMS_P2;Temp;Humidity;BMP_temperature;BMP_pressure;BME280_temperature;BME280_humidity;BME280_pressure;Samples;Min_cycle;Max_cycle;Signal;HPM_P1;HPM_P2
2024/01/14 00:00:01;;;;;;;16.40;2.33;;;3.70;99.90;;;;;;5073312;28;20731;-81
2024/01/14 00:02:27;;;;;;;9.97;3.20;;;3.70;99.90;;;;;;5034673;28;20223;-81
2024/01/14 00:04:54;;;;;;;18.83;1.87;;;3.70;99.90;;;;;;5047320;28;20240;-81
2024/01/14 00:07:23;;;;;;;10.43;2.77;;;3.70;99.90;;;;;;5050471;28;20201;-80
2024/01/14 00:09:48;;;;;;;13.17;2.40;;;3.70;99.90;;;;;;5044260;28;20289;-81
2024/01/14 00:12:15;;;;;;;8.17;2.10;;;3.70;99.90;;;;;;5055956;28;20329;-81
2024/01/14 00:14:42;;;;;;;5.33;2.10;;;3.70;99.90;;;;;;5053561;28;20217;-81
2024/01/14 00:17:10;;;;;;;12.53;2.17;;;3.80;99.90;;;;;;5050898;28;20210;-81
2024/01/14 00:19:37;;;;;;;15.27;2.47;;;3.80;99.90;;;;;;5043799;28;20215;-82
2024/01/14 00:22:04;;;;;;;10.33;2.60;;;3.80;99.90;;;;;;5062457;28;20198;-82
2024/01/14 00:24:32;;;;;;;16.10;2.00;;;3.80;99.90;;;;;;5060501;28;20315;-82
2024/01/14 00:26:59;;;;;;;17.37;2.80;;;3.80;99.90;;;;;;5046636;28;20198;-82
2024/01/14 00:29:26;;;;;;;9.17;2.07;;;3.80;99.90;;;;;;5048348;28;20825;-82
2024/01/14 00:31:53;;;;;;;9.47;1.87;;;3.80;99.90;;;;;;5052282;28;20206;-82
2024/01/14 00:34:20;;;;;;;12.20;2.57;;;3.80;99.90;;;;;;5066904;28;20219;-81
2024/01/14 00:36:47;;;;;;;16.57;2.87;;;3.80;99.90;;;;;;5056877;28;20327;-82
2024/01/14 00:39:14;;;;;;;8.93;1.97;;;3.80;99.90;;;;;;5050817;28;20203;-81
2024/01/14 00:41:42;;;;;;;9.17;2.10;;;3.80;99.90;;;;;;5063532;28;20206;-82
2024/01/14 00:44:08;;;;;;;11.83;2.87;;;3.80;99.90;;;;;;5063510;28;20230;-80
2024/01/14 00:46:35;;;;;;;15.47;2.70;;;3.80;99.90;;;;;;5047236;28;21316;-81
2024/01/14 00:49:02;;;;;;;14.13;2.30;;;3.80;99.90;;;;;;5048660;28;20210;-81
2024/01/14 00:51:29;;;;;;;12.50;2.20;;;3.80;99.90;;;;;;5042164;28;20288;-81
2024/01/14 00:53:56;;;;;;;13.20;2.17;;;3.80;99.90;;;;;;5069131;28;20221;-81
2024/01/14 00:56:22;;;;;;;14.83;2.93;;;3.80;99.90;;;;;;5060139;28;20187;-81
2024/01/14 00:58:50;;;;;;;21.33;2.43;;;3.80;99.90;;;;;;5050509;28;20194;-81
2024/01/14 01:01:17;;;;;;;17.93;4.50;;;3.80;99.90;;;;;;5060382;28;20227;-80
2024/01/14 01:03:43;;;;;;;15.47;3.03;;;3.80;99.90;;;;;;5034072;28;20226;-81
2024/01/14 01:06:11;;;;;;;15.70;2.33;;;3.80;99.90;;;;;;5043599;28;20206;-81
2024/01/14 01:08:38;;;;;;;11.63;3.07;;;3.80;99.90;;;;;;5053350;28;20724;-81
2024/01/14 01:11:06;;;;;;;16.20;2.63;;;3.70;99.90;;;;;;5041435;28;20213;-80
2024/01/14 01:13:33;;;;;;;11.87;2.77;;;3.60;99.90;;;;;;5045901;28;20343;-81
2024/01/14 01:16:01;;;;;;;12.93;2.20;;;3.60;99.90;;;;;;5050110;28;20232;-81
2024/01/14 01:18:28;;;;;;;15.57;2.53;;;3.60;99.90;;;;;;5042906;28;20599;-81
2024/01/14 01:20:56;;;;;;;13.13;2.93;;;3.60;99.90;;;;;;5053388;28;20205;-81
2024/01/14 01:23:23;;;;;;;18.17;2.60;;;3.60;99.90;;;;;;5039117;28;20287;-81
2024/01/14 01:25:50;;;;;;;16.00;1.93;;;3.60;99.90;;;;;;5052946;28;20195;-81
2024/01/14 01:28:18;;;;;;;15.53;2.53;;;3.60;99.90;;;;;;5042549;28;20267;-80
2024/01/14 01:30:45;;;;;;;11.67;2.23;;;3.60;99.90;;;;;;5051364;28;20203;-80
2024/01/14 01:33:14;;;;;;;16.50;2.97;;;3.60;99.90;;;;;;5050377;28;20191;-81
2024/01/14 01:35:40;;;;;;;14.07;2.27;;;3.60;99.90;;;;;;5046342;28;20210;-81
2024/01/14 01:38:07;;;;;;;18.13;2.83;;;3.60;99.90;;;;;;5043834;28;20252;-80
2024/01/14 01:40:34;;;;;;;8.17;2.33;;;3.60;99.90;;;;;;5051972;28;20877;-81
2024/01/14 01:43:01;;;;;;;10.30;2.73;;;3.60;99.90;;;;;;5046938;28;20206;-81
2024/01/14 01:45:28;;;;;;;13.13;2.60;;;3.60;99.90;;;;;;5047504;28;20497;-81
2024/01/14 01:47:55;;;;;;;17.23;2.53;;;3.60;99.90;;;;;;5050276;28;20202;-81
2024/01/14 01:50:23;;;;;;;15.97;2.63;;;3.70;99.90;;;;;;5027927;28;20214;-81
2024/01/14 01:52:51;;;;;;;8.40;2.87;;;3.60;99.90;;;;;;5045528;28;20194;-80
2024/01/14 01:55:18;;;;;;;11.70;2.07;;;3.70;99.90;;;;;;5046075;28;20600;-79
2024/01/14 01:57:46;;;;;;;13.47;2.23;;;3.70;99.90;;;;;;5055853;28;20198;-80
2024/01/14 02:00:14;;;;;;;13.00;1.80;;;3.60;99.90;;;;;;5049269;28;20625;-80
2024/01/14 02:02:42;;;;;;;10.57;2.20;;;3.60;99.90;;;;;;5047389;28;20194;-81
2024/01/14 02:05:10;;;;;;;8.13;2.37;;;3.60;99.90;;;;;;5042046;28;20664;-80
2024/01/14 02:07:39;;;;;;;8.93;2.60;;;3.70;99.90;;;;;;5047072;28;20214;-80
2024/01/14 02:10:07;;;;;;;8.87;1.30;;;3.60;99.90;;;;;;5063346;28;20702;-80
2024/01/14 02:12:33;;;;;;;8.80;2.97;;;3.60;99.90;;;;;;5041395;28;20263;-80
2024/01/14 02:15:00;;;;;;;4.17;0.87;;;3.60;99.90;;;;;;5043348;28;20219;-80
2024/01/14 02:17:27;;;;;;;6.10;1.57;;;3.50;99.90;;;;;;5041878;28;20213;-80
2024/01/14 02:19:54;;;;;;;4.07;0.70;;;3.50;99.90;;;;;;5066769;28;20200;-81
2024/01/14 02:22:28;;;;;;;5.50;0.80;;;3.40;99.90;;;;;;5041496;28;20203;-81
2024/01/14 02:24:57;;;;;;;8.43;0.97;;;3.40;99.90;;;;;;5040044;28;20734;-81
2024/01/14 02:27:24;;;;;;;5.40;1.00;;;3.30;99.90;;;;;;5044221;28;20978;-81
2024/01/14 02:29:54;;;;;;;2.57;0.63;;;3.30;99.90;;;;;;5067111;28;20244;-81
2024/01/14 02:32:21;;;;;;;2.77;0.60;;;3.20;99.90;;;;;;5063092;28;20619;-81
2024/01/14 02:34:48;;;;;;;5.17;0.90;;;3.20;99.90;;;;;;5063396;28;20219;-81
2024/01/14 02:37:15;;;;;;;4.03;0.97;;;3.10;99.90;;;;;;5029782;28;20204;-81
2024/01/14 02:39:42;;;;;;;7.27;1.07;;;3.20;99.90;;;;;;5041132;28;20206;-81
2024/01/14 02:42:10;;;;;;;8.27;0.90;;;3.10;99.90;;;;;;5048070;28;20272;-81
2024/01/14 02:44:37;;;;;;;6.10;1.00;;;3.10;99.90;;;;;;5060595;28;20222;-81
2024/01/14 02:47:04;;;;;;;7.70;0.97;;;3.10;99.90;;;;;;5045313;28;20206;-81
2024/01/14 02:49:30;;;;;;;7.57;1.10;;;3.10;99.90;;;;;;5053429;28;21635;-81
2024/01/14 02:51:57;;;;;;;7.37;1.07;;;3.00;99.90;;;;;;5053024;28;20214;-81
2024/01/14 02:54:24;;;;;;;6.17;1.03;;;3.00;99.90;;;;;;5041435;28;21005;-81
2024/01/14 02:56:51;;;;;;;4.07;0.80;;;2.90;99.90;;;;;;5070219;28;20202;-81
2024/01/14 02:59:19;;;;;;;4.87;1.23;;;2.90;99.90;;;;;;5045252;28;20215;-81
2024/01/14 03:01:47;;;;;;;4.57;1.00;;;2.90;99.90;;;;;;5049460;28;20203;-81
2024/01/14 03:04:13;;;;;;;5.10;0.80;;;2.80;99.90;;;;;;5049519;28;20210;-81
2024/01/14 03:06:40;;;;;;;4.77;1.20;;;2.80;99.90;;;;;;5049134;28;20195;-81
2024/01/14 03:09:07;;;;;;;3.37;0.83;;;2.80;99.90;;;;;;5035324;28;20202;-81
2024/01/14 03:11:35;;;;;;;4.70;1.00;;;2.80;99.90;;;;;;5060289;28;20195;-81
2024/01/14 03:14:02;;;;;;;7.17;1.13;;;2.80;99.90;;;;;;5045423;28;20222;-81
2024/01/14 03:16:30;;;;;;;11.07;1.70;;;2.70;99.90;;;;;;5041719;28;20244;-81
2024/01/14 03:18:56;;;;;;;6.23;1.20;;;2.70;99.90;;;;;;5065961;28;20195;-80
2024/01/14 03:21:23;;;;;;;8.73;2.00;;;2.70;99.90;;;;;;5052361;28;20191;-81
2024/01/14 03:23:50;;;;;;;2.77;1.23;;;2.70;99.90;;;;;;5035180;28;20222;-81
2024/01/14 03:26:16;;;;;;;4.77;1.00;;;2.70;99.90;;;;;;5041315;28;20202;-81
2024/01/14 03:28:43;;;;;;;7.13;1.17;;;2.70;99.90;;;;;;5052173;28;20198;-80
2024/01/14 03:31:15;;;;;;;5.57;0.93;;;2.70;99.90;;;;;;5059607;28;20222;-81
2024/01/14 03:33:44;;;;;;;6.40;1.10;;;2.70;99.90;;;;;;5044732;28;20218;-81
2024/01/14 03:36:14;;;;;;;5.90;1.20;;;2.70;99.90;;;;;;5050662;28;20198;-81
2024/01/14 03:38:40;;;;;;;7.47;1.30;;;2.70;99.90;;;;;;5055894;28;20289;-81
2024/01/14 03:41:07;;;;;;;8.13;1.30;;;2.60;99.90;;;;;;5058163;28;23709;-81
2024/01/14 03:43:34;;;;;;;6.43;1.87;;;2.60;99.90;;;;;;5069141;28;20190;-81
2024/01/14 03:46:02;;;;;;;9.17;1.07;;;2.60;99.90;;;;;;5044539;28;20256;-81
2024/01/14 03:48:28;;;;;;;6.63;1.17;;;2.60;99.90;;;;;;5046197;28;20233;-81
2024/01/14 03:50:56;;;;;;;9.20;1.63;;;2.70;99.90;;;;;;5061172;28;20249;-81
2024/01/14 03:53:23;;;;;;;9.73;1.10;;;2.60;99.90;;;;;;5031020;28;20215;-81
2024/01/14 03:55:50;;;;;;;7.67;1.10;;;2.60;99.90;;;;;;5048840;28;20670;-80
2024/01/14 03:58:17;;;;;;;10.93;1.73;;;2.60;99.90;;;;;;5047999;28;20269;-81
2024/01/14 04:00:44;;;;;;;9.67;1.53;;;2.50;99.90;;;;;;5052399;28;20249;-81
2024/01/14 04:03:11;;;;;;;9.00;1.97;;;2.50;99.90;;;;;;5037234;28;20206;-81
2024/01/14 04:05:38;;;;;;;7.97;1.37;;;2.50;99.90;;;;;;5053411;28;20215;-81
2024/01/14 04:08:06;;;;;;;7.57;1.00;;;2.50;99.90;;;;;;5033179;28;20211;-81
2024/01/14 04:10:33;;;;;;;6.43;1.20;;;2.50;99.90;;;;;;5057815;28;20221;-81
2024/01/14 04:13:00;;;;;;;9.87;1.83;;;2.50;99.90;;;;;;5040297;28;20716;-81
2024/01/14 04:15:27;;;;;;;7.40;1.10;;;2.50;99.90;;;;;;5053131;28;20242;-82
2024/01/14 04:17:54;;;;;;;8.90;1.00;;;2.50;99.90;;;;;;5048236;28;20228;-81
2024/01/14 04:20:21;;;;;;;3.80;1.33;;;2.50;99.90;;;;;;5073583;28;20229;-82
2024/01/14 04:22:48;;;;;;;5.80;1.13;;;2.50;99.90;;;;;;5064359;28;20542;-82
2024/01/14 04:25:16;;;;;;;11.50;1.60;;;2.40;99.90;;;;;;5047456;28;20242;-82
2024/01/14 04:27:43;;;;;;;7.33;1.50;;;2.40;99.90;;;;;;5058709;28;20225;-82
2024/01/14 04:30:10;;;;;;;5.83;1.40;;;2.40;99.90;;;;;;5051091;28;20206;-82
2024/01/14 04:32:37;;;;;;;6.87;1.50;;;2.40;99.90;;;;;;5069761;28;20199;-82
2024/01/14 04:35:04;;;;;;;6.30;1.03;;;2.40;99.90;;;;;;5045521;28;20210;-82
2024/01/14 04:37:32;;;;;;;9.57;1.50;;;2.40;99.90;;;;;;5061617;28;20266;-82
2024/01/14 04:39:59;;;;;;;10.20;1.40;;;2.40;99.90;;;;;;5051129;28;20219;-82
2024/01/14 04:42:28;;;;;;;5.90;1.03;;;2.40;99.90;;;;;;5059128;28;20191;-82
2024/01/14 04:44:54;;;;;;;9.00;1.10;;;2.50;99.90;;;;;;5062889;28;20207;-82
2024/01/14 04:47:21;;;;;;;10.83;1.57;;;2.50;99.90;;;;;;5058382;28;20203;-82
2024/01/14 04:49:48;;;;;;;8.30;1.60;;;2.60;99.90;;;;;;5048144;28;20224;-81
2024/01/14 04:52:15;;;;;;;8.87;1.23;;;2.60;99.90;;;;;;5066004;28;20535;-82
2024/01/14 04:54:42;;;;;;;7.93;1.00;;;2.60;99.90;;;;;;5073142;28;20663;-81
2024/01/14 04:57:09;;;;;;;7.90;1.50;;;2.60;99.90;;;;;;5039475;28;20213;-81
2024/01/14 04:59:37;;;;;;;12.97;1.37;;;2.60;99.90;;;;;;5060047;28;20198;-81
2024/01/14 05:02:04;;;;;;;5.97;1.33;;;2.70;99.90;;;;;;5057400;28;20218;-82
2024/01/14 05:04:31;;;;;;;9.77;1.23;;;2.70;99.90;;;;;;5052971;28;20210;-81
2024/01/14 05:06:58;;;;;;;9.33;2.17;;;2.70;99.90;;;;;;5066779;28;20477;-81
2024/01/14 05:09:25;;;;;;;13.63;1.27;;;2.70;99.90;;;;;;5076060;28;20195;-81
2024/01/14 05:11:52;;;;;;;6.83;1.93;;;2.70;99.90;;;;;;5037611;28;20207;-81
2024/01/14 05:14:19;;;;;;;6.43;1.70;;;2.80;99.90;;;;;;5063772;28;20202;-81
2024/01/14 05:16:47;;;;;;;8.10;1.63;;;2.80;99.90;;;;;;5059742;28;20190;-81
2024/01/14 05:19:14;;;;;;;7.93;2.10;;;2.80;99.90;;;;;;5075336;28;20281;-80
2024/01/14 05:21:41;;;;;;;9.83;1.40;;;2.80;99.90;;;;;;5047922;28;20198;-81
2024/01/14 05:24:07;;;;;;;10.83;2.50;;;2.80;99.90;;;;;;5055299;28;20298;-81
2024/01/14 05:26:39;;;;;;;12.80;1.93;;;2.90;99.90;;;;;;5037988;28;20215;-81
2024/01/14 05:29:06;;;;;;;12.43;1.73;;;2.90;99.90;;;;;;5076809;28;20229;-81
2024/01/14 05:31:33;;;;;;;10.20;1.60;;;2.90;99.90;;;;;;5047565;28;20198;-81
2024/01/14 05:34:01;;;;;;;12.30;1.73;;;2.90;99.90;;;;;;5078406;28;20253;-81
2024/01/14 05:36:28;;;;;;;9.67;1.07;;;2.90;99.90;;;;;;5065528;28;20187;-81
2024/01/14 05:38:54;;;;;;;6.73;1.47;;;2.90;99.90;;;;;;5064894;28;20203;-81
2024/01/14 05:41:21;;;;;;;8.37;1.23;;;2.90;99.90;;;;;;5055516;28;20252;-82
2024/01/14 05:43:48;;;;;;;3.80;1.30;;;3.00;99.90;;;;;;5036502;28;20223;-81
2024/01/14 05:46:15;;;;;;;10.07;1.27;;;3.00;99.90;;;;;;5071848;28;20215;-81
2024/01/14 05:48:43;;;;;;;9.70;1.30;;;3.00;99.90;;;;;;5051162;28;20926;-81
2024/01/14 05:51:11;;;;;;;11.90;1.60;;;3.00;99.90;;;;;;5059745;28;20203;-81
2024/01/14 05:53:38;;;;;;;10.83;1.57;;;3.00;99.90;;;;;;5058793;28;20210;-82
2024/01/14 05:56:05;;;;;;;8.43;1.37;;;3.00;99.90;;;;;;5060279;28;20194;-81
2024/01/14 05:58:34;;;;;;;8.10;1.67;;;3.10;99.90;;;;;;5048884;28;20244;-81
2024/01/14 06:01:01;;;;;;;5.73;1.10;;;3.00;99.90;;;;;;5074698;28;20201;-82
2024/01/14 06:03:28;;;;;;;10.20;1.67;;;3.10;99.90;;;;;;5064755;28;20266;-81
2024/01/14 06:05:55;;;;;;;9.53;1.53;;;3.10;99.90;;;;;;5057328;28;20229;-82
2024/01/14 06:08:24;;;;;;;9.63;1.60;;;3.10;99.90;;;;;;5065559;28;20258;-82
2024/01/14 06:10:51;;;;;;;8.77;1.73;;;3.10;99.90;;;;;;5054968;28;20373;-81
2024/01/14 06:13:18;;;;;;;10.63;1.30;;;3.10;99.90;;;;;;5058048;28;20198;-81
2024/01/14 06:15:44;;;;;;;9.27;1.57;;;3.10;99.90;;;;;;5035950;28;20214;-81
2024/01/14 06:18:12;;;;;;;11.37;1.53;;;3.10;99.90;;;;;;5061590;28;20222;-81
2024/01/14 06:20:39;;;;;;;6.17;1.00;;;3.10;99.90;;;;;;5055880;28;20209;-83
2024/01/14 06:23:05;;;;;;;12.20;1.80;;;3.10;99.90;;;;;;5057080;28;20203;-81
2024/01/14 06:25:34;;;;;;;10.60;1.77;;;3.20;99.90;;;;;;5071468;28;20222;-81
2024/01/14 06:28:02;;;;;;;8.67;1.63;;;3.20;99.90;;;;;;5063833;28;20195;-81
2024/01/14 06:30:29;;;;;;;7.30;1.17;;;3.20;99.90;;;;;;5041881;28;20206;-81
2024/01/14 06:32:56;;;;;;;3.43;1.47;;;3.20;99.90;;;;;;5080864;28;20205;-81
2024/01/14 06:35:23;;;;;;;6.20;1.20;;;3.20;99.90;;;;;;5050666;28;20214;-81
2024/01/14 06:37:50;;;;;;;5.47;1.03;;;3.20;99.90;;;;;;5056604;28;20209;-81
2024/01/14 06:40:17;;;;;;;7.20;1.30;;;3.20;99.90;;;;;;5057666;28;20206;-81
2024/01/14 06:42:45;;;;;;;5.27;1.13;;;3.30;99.90;;;;;;5075821;28;20564;-81
2024/01/14 06:45:13;;;;;;;8.30;1.30;;;3.30;99.90;;;;;;5072129;28;20277;-81
2024/01/14 06:47:40;;;;;;;7.70;1.30;;;3.20;99.90;;;;;;5040417;28;20207;-81
2024/01/14 06:50:08;;;;;;;8.17;1.40;;;3.30;99.90;;;;;;5061166;28;20271;-82
2024/01/14 06:52:35;;;;;;;11.00;2.53;;;3.20;99.90;;;;;;5060052;28;20218;-82
2024/01/14 06:55:04;;;;;;;12.10;1.43;;;3.30;99.90;;;;;;5076562;28;20223;-82
2024/01/14 06:57:31;;;;;;;7.60;1.47;;;3.20;99.90;;;;;;5052067;28;20202;-82
2024/01/14 07:00:00;;;;;;;5.10;0.83;;;3.30;99.90;;;;;;5076266;28;20205;-82
2024/01/14 07:02:27;;;;;;;13.33;2.40;;;3.30;99.90;;;;;;5050603;28;20201;-80
2024/01/14 07:04:53;;;;;;;9.63;1.60;;;3.30;99.90;;;;;;5058144;28;20226;-82
2024/01/14 07:07:20;;;;;;;7.03;1.73;;;3.30;99.90;;;;;;5050655;28;20230;-80
2024/01/14 07:09:48;;;;;;;4.93;1.30;;;3.30;99.90;;;;;;5056391;28;20206;-83
2024/01/14 07:12:15;;;;;;;7.33;1.60;;;3.30;99.90;;;;;;5053098;28;20282;-81
2024/01/14 07:14:42;;;;;;;7.07;1.47;;;3.30;99.90;;;;;;5051946;28;20218;-81
2024/01/14 07:17:10;;;;;;;9.70;1.43;;;3.30;99.90;;;;;;5078103;28;20263;-81
2024/01/14 07:19:37;;;;;;;7.37;1.10;;;3.40;99.90;;;;;;5052476;28;20206;-83
2024/01/14 07:22:06;;;;;;;8.03;1.60;;;3.30;99.90;;;;;;5048920;28;20698;-81
2024/01/14 07:24:33;;;;;;;8.10;1.07;;;3.30;99.90;;;;;;5055084;28;20225;-83
2024/01/14 07:27:01;;;;;;;9.23;1.53;;;3.30;99.90;;;;;;5068753;28;20221;-81
2024/01/14 07:29:28;;;;;;;8.13;1.37;;;3.30;99.90;;;;;;5062366;28;20195;-81
2024/01/14 07:31:55;;;;;;;6.60;1.20;;;3.30;99.90;;;;;;5050894;28;20446;-83
2024/01/14 07:34:50;;;;;;;6.00;1.63;;;3.30;99.90;;;;;;5045364;28;20248;-83
2024/01/14 07:37:17;;;;;;;7.50;1.47;;;3.30;99.90;;;;;;5046928;28;20299;-83
2024/01/14 07:39:45;;;;;;;9.60;1.57;;;3.30;99.90;;;;;;5056463;28;20205;-82
2024/01/14 07:42:12;;;;;;;8.00;1.53;;;3.30;99.90;;;;;;5058882;28;20662;-82
2024/01/14 07:44:39;;;;;;;12.37;1.97;;;3.30;99.90;;;;;;5056885;28;20572;-82
2024/01/14 07:47:06;;;;;;;7.13;0.97;;;3.30;99.90;;;;;;5059013;28;20484;-82
2024/01/14 07:49:34;;;;;;;5.53;1.67;;;3.30;99.90;;;;;;5039990;28;20272;-83
2024/01/14 07:52:02;;;;;;;5.80;1.17;;;3.30;99.90;;;;;;5043236;28;20537;-83
2024/01/14 07:54:29;;;;;;;6.27;1.00;;;3.30;99.90;;;;;;5057397;28;20215;-84
2024/01/14 07:56:56;;;;;;;4.27;1.37;;;3.30;99.90;;;;;;5050571;28;20340;-83
2024/01/14 07:59:24;;;;;;;3.63;1.07;;;3.30;99.90;;;;;;5056221;28;20202;-83
2024/01/14 08:01:51;;;;;;;6.37;1.03;;;3.30;99.90;;;;;;5049990;28;20210;-83
2024/01/14 08:04:17;;;;;;;5.57;1.00;;;3.30;99.90;;;;;;5062170;28;20211;-82
2024/01/14 08:06:46;;;;;;;6.70;1.20;;;3.30;99.90;;;;;;5034502;28;20221;-83
2024/01/14 08:09:13;;;;;;;9.33;1.10;;;3.30;99.90;;;;;;5067787;28;20747;-84
2024/01/14 08:11:40;;;;;;;1.73;0.90;;;3.30;99.90;;;;;;5070789;28;20251;-84
2024/01/14 08:14:06;;;;;;;8.97;1.20;;;3.30;99.90;;;;;;5051116;28;20592;-82
2024/01/14 08:16:33;;;;;;;4.33;0.93;;;3.30;99.90;;;;;;5057089;28;20397;-82
2024/01/14 08:19:00;;;;;;;3.40;0.87;;;3.30;99.90;;;;;;5057175;28;20210;-82
2024/01/14 08:21:27;;;;;;;5.20;1.00;;;3.30;99.90;;;;;;5033049;28;22936;-83
2024/01/14 08:23:55;;;;;;;3.87;0.70;;;3.30;99.90;;;;;;5049518;28;20214;-81
2024/01/14 08:26:22;;;;;;;5.70;0.67;;;3.30;99.90;;;;;;5047228;28;20312;-80
2024/01/14 08:28:49;;;;;;;7.83;0.87;;;3.30;99.90;;;;;;5058195;28;20202;-81
2024/01/14 08:31:16;;;;;;;5.43;1.00;;;3.30;99.90;;;;;;5052608;28;20190;-86
2024/01/14 08:33:43;;;;;;;5.37;0.97;;;3.40;99.90;;;;;;5049315;28;20218;-83
2024/01/14 08:36:11;;;;;;;8.67;1.40;;;3.40;99.90;;;;;;5047166;28;20195;-86
2024/01/14 08:38:40;;;;;;;3.70;1.10;;;3.40;99.90;;;;;;5045277;28;20207;-85
2024/01/14 08:41:09;;;;;;;11.70;1.40;;;3.40;99.90;;;;;;5052041;28;20206;-82
2024/01/14 08:43:36;;;;;;;7.83;1.33;;;3.40;99.90;;;;;;5072517;28;20194;-84
2024/01/14 08:46:03;;;;;;;8.60;1.83;;;3.40;99.90;;;;;;5065019;28;20713;-84
2024/01/14 08:48:30;;;;;;;5.63;1.10;;;3.40;99.90;;;;;;5066526;28;23079;-84
2024/01/14 08:50:59;;;;;;;3.47;1.10;;;3.40;99.90;;;;;;5057300;28;20202;-83
2024/01/14 08:53:26;;;;;;;6.43;1.20;;;3.40;99.90;;;;;;5061897;28;20205;-82
2024/01/14 08:55:53;;;;;;;5.33;0.83;;;3.50;99.90;;;;;;5073626;28;20271;-83
2024/01/14 08:58:22;;;;;;;7.53;1.77;;;3.40;99.90;;;;;;5048510;28;20219;-82
2024/01/14 09:00:49;;;;;;;2.50;0.53;;;3.40;99.90;;;;;;5053867;28;20734;-83
2024/01/14 09:03:16;;;;;;;2.93;0.90;;;3.40;99.90;;;;;;5054771;28;20195;-82
2024/01/14 09:05:43;;;;;;;5.70;1.20;;;3.40;99.90;;;;;;5074950;28;20766;-82
2024/01/14 09:08:10;;;;;;;4.40;1.20;;;3.40;99.90;;;;;;5027547;28;20209;-81
2024/01/14 09:10:37;;;;;;;3.50;1.20;;;3.40;99.90;;;;;;5073860;28;20193;-82
2024/01/14 09:13:04;;;;;;;4.87;1.27;;;3.40;99.90;;;;;;5055238;28;20208;-84
2024/01/14 09:15:34;;;;;;;13.73;1.67;;;3.40;99.90;;;;;;5055044;28;20207;-82
2024/01/14 09:18:01;;;;;;;4.07;1.20;;;3.40;99.90;;;;;;5052650;28;20194;-81
2024/01/14 09:20:29;;;;;;;5.40;1.03;;;3.50;99.90;;;;;;5067780;28;20194;-83
2024/01/14 09:22:56;;;;;;;3.93;1.27;;;3.50;99.90;;;;;;5054194;28;20199;-82
2024/01/14 09:25:23;;;;;;;5.43;0.53;;;3.50;99.90;;;;;;5037866;28;20214;-85
2024/01/14 09:27:50;;;;;;;4.67;1.57;;;3.50;99.90;;;;;;5052599;28;20232;-83
2024/01/14 09:30:17;;;;;;;2.27;1.00;;;3.50;99.90;;;;;;5051977;28;20195;-84
2024/01/14 09:32:45;;;;;;;4.20;0.80;;;3.50;99.90;;;;;;5053997;28;20540;-83
2024/01/14 09:35:13;;;;;;;6.27;0.90;;;3.50;99.90;;;;;;5068878;28;20238;-83
2024/01/14 09:37:40;;;;;;;5.27;1.17;;;3.50;99.90;;;;;;5049546;28;20804;-82
2024/01/14 09:40:08;;;;;;;5.47;1.17;;;3.50;99.90;;;;;;5058861;28;20210;-82
2024/01/14 09:42:38;;;;;;;6.50;0.90;;;3.50;99.90;;;;;;5062277;28;20225;-82
2024/01/14 09:45:06;;;;;;;4.43;1.67;;;3.60;99.90;;;;;;5070831;28;20651;-82
2024/01/14 09:47:34;;;;;;;3.37;1.03;;;3.70;99.90;;;;;;5057845;28;20233;-84
2024/01/14 09:50:03;;;;;;;9.63;1.67;;;3.80;99.90;;;;;;5049947;28;20550;-83
2024/01/14 09:52:31;;;;;;;7.00;1.30;;;3.80;99.90;;;;;;5066991;28;20198;-83
2024/01/14 09:54:58;;;;;;;9.40;1.53;;;3.80;99.90;;;;;;5061629;28;20233;-83
2024/01/14 09:57:25;;;;;;;6.10;1.17;;;3.90;99.90;;;;;;5023081;28;20256;-83
2024/01/14 09:59:53;;;;;;;13.60;2.67;;;3.80;99.90;;;;;;5059132;28;20187;-82
2024/01/14 10:02:21;;;;;;;6.37;1.20;;;3.80;99.90;;;;;;5055595;28;20289;-82
2024/01/14 10:04:49;;;;;;;9.87;1.10;;;3.70;99.90;;;;;;5053587;28;20215;-82
2024/01/14 10:07:18;;;;;;;4.90;1.50;;;3.70;99.90;;;;;;5062627;28;20214;-83
2024/01/14 10:09:45;;;;;;;2.27;0.93;;;3.70;99.90;;;;;;5050230;28;20206;-82
2024/01/14 10:12:14;;;;;;;8.07;1.60;;;3.60;99.90;;;;;;5051678;28;20241;-82
2024/01/14 10:14:40;;;;;;;5.53;1.30;;;3.60;99.90;;;;;;5055866;28;20368;-83
2024/01/14 10:17:07;;;;;;;3.30;0.80;;;3.60;99.90;;;;;;5055535;28;20521;-87
2024/01/14 10:19:36;;;;;;;3.83;1.27;;;3.50;99.90;;;;;;5046148;28;20203;-87
2024/01/14 10:22:03;;;;;;;4.33;1.20;;;3.50;99.90;;;;;;5047539;28;20191;-87
2024/01/14 10:24:33;;;;;;;3.17;1.27;;;3.50;99.90;;;;;;5063441;28;20224;-86
2024/01/14 10:27:00;;;;;;;7.07;1.40;;;3.40;99.90;;;;;;5053773;28;20293;-86
2024/01/14 10:29:27;;;;;;;2.70;1.30;;;3.40;99.90;;;;;;5035055;28;21134;-85
2024/01/14 10:31:54;;;;;;;6.60;1.73;;;3.40;99.90;;;;;;5052616;28;20191;-88
2024/01/14 10:34:21;;;;;;;6.87;1.30;;;3.40;99.90;;;;;;5059105;28;20211;-85
2024/01/14 10:36:48;;;;;;;4.10;1.70;;;3.30;99.90;;;;;;5068776;28;20692;-81
2024/01/14 10:39:15;;;;;;;8.70;1.93;;;3.30;99.90;;;;;;5044922;28;20262;-82
2024/01/14 10:41:44;;;;;;;5.67;1.60;;;3.40;99.90;;;;;;5049377;28;20253;-82
2024/01/14 10:44:12;;;;;;;4.47;1.50;;;3.40;99.90;;;;;;5027838;28;20214;-78
2024/01/14 10:46:42;;;;;;;6.10;1.83;;;3.40;99.90;;;;;;5064671;28;20218;-82
2024/01/14 10:49:11;;;;;;;5.00;1.53;;;3.40;99.90;;;;;;5055553;28;20237;-78
2024/01/14 10:51:40;;;;;;;7.67;1.50;;;3.40;99.90;;;;;;5045969;28;20215;-81
2024/01/14 10:54:16;;;;;;;3.03;1.13;;;3.50;99.90;;;;;;5046342;28;20226;-79
2024/01/14 10:56:50;;;;;;;8.00;1.47;;;3.50;99.90;;;;;;5053848;28;20692;-77
2024/01/14 10:59:19;;;;;;;4.37;1.60;;;3.50;99.90;;;;;;5031219;28;20400;-78
2024/01/14 11:01:50;;;;;;;5.93;1.67;;;3.60;99.90;;;;;;5066461;28;20684;-79
2024/01/14 11:04:19;;;;;;;5.20;1.17;;;3.60;99.90;;;;;;5057130;28;20279;-82
2024/01/14 11:06:47;;;;;;;8.60;1.50;;;3.50;99.90;;;;;;5041637;28;20238;-84
2024/01/14 11:09:14;;;;;;;5.73;0.97;;;3.50;99.90;;;;;;5061720;28;20198;-85
2024/01/14 11:11:51;;;;;;;8.13;1.43;;;3.50;99.90;;;;;;5066964;28;20294;-85
2024/01/14 11:14:23;;;;;;;4.40;1.10;;;3.50;99.90;;;;;;5041166;28;20214;-82
2024/01/14 11:16:57;;;;;;;6.73;1.30;;;3.40;99.90;;;;;;5056434;28;20289;-82
2024/01/14 11:19:29;;;;;;;6.47;1.10;;;3.40;99.90;;;;;;5066669;28;20209;-84
2024/01/14 11:22:12;;;;;;;5.20;1.60;;;3.40;99.90;;;;;;5049402;28;20208;-83
2024/01/14 11:24:42;;;;;;;2.70;1.10;;;3.40;99.90;;;;;;5052940;28;20221;-85
2024/01/14 11:27:11;;;;;;;5.43;1.50;;;3.40;99.90;;;;;;5055027;28;20305;-81
2024/01/14 11:29:40;;;;;;;7.90;1.17;;;3.40;99.90;;;;;;5038231;28;20198;-82
2024/01/14 11:32:09;;;;;;;4.27;1.07;;;3.40;99.90;;;;;;5070209;28;20218;-82
2024/01/14 11:34:54;;;;;;;4.23;1.07;;;3.40;99.90;;;;;;5052384;28;20244;-81
2024/01/14 11:37:44;;;;;;;9.27;1.53;;;3.40;99.90;;;;;;5061351;28;20613;-83
2024/01/14 11:40:24;;;;;;;2.33;1.07;;;3.50;99.90;;;;;;5060102;28;20221;-85
2024/01/14 11:42:57;;;;;;;5.03;1.20;;;3.40;99.90;;;;;;5072077;28;20202;-79
2024/01/14 11:45:38;;;;;;;3.97;1.40;;;3.40;99.90;;;;;;5019508;28;21080;-81
2024/01/14 11:48:06;;;;;;;3.73;1.53;;;3.40;99.90;;;;;;5051685;28;20616;-83
2024/01/14 11:50:34;;;;;;;7.77;1.13;;;3.40;99.90;;;;;;5062142;28;20294;-82
2024/01/14 11:53:03;;;;;;;7.67;1.40;;;3.40;99.90;;;;;;5062136;28;20727;-80
2024/01/14 11:55:31;;;;;;;4.83;1.53;;;3.40;99.90;;;;;;5052239;28;20531;-82
2024/01/14 11:58:20;;;;;;;3.03;1.13;;;3.50;99.90;;;;;;5053771;28;20199;-82
2024/01/14 12:00:49;;;;;;;5.67;1.40;;;3.50;99.90;;;;;;5054499;28;20207;-84
2024/01/14 12:03:18;;;;;;;7.97;1.70;;;3.50;99.90;;;;;;5048158;28;20564;-80
2024/01/14 12:05:46;;;;;;;5.30;1.20;;;3.50;99.90;;;;;;5070390;28;20230;-82
2024/01/14 12:08:14;;;;;;;4.80;1.60;;;3.50;99.90;;;;;;5059945;28;20624;-82
2024/01/14 12:10:41;;;;;;;2.57;1.33;;;3.50;99.90;;;;;;5056832;28;20234;-82
2024/01/14 12:13:09;;;;;;;2.87;1.40;;;3.50;99.90;;;;;;5070991;28;20289;-80
2024/01/14 12:15:36;;;;;;;4.87;1.20;;;3.60;99.90;;;;;;5053435;28;20289;-80
2024/01/14 12:18:04;;;;;;;3.40;1.03;;;3.60;99.90;;;;;;5053558;28;20203;-81
2024/01/14 12:20:31;;;;;;;3.57;1.30;;;3.60;99.90;;;;;;5060092;28;20209;-80
2024/01/14 12:23:00;;;;;;;6.97;1.03;;;3.60;99.90;;;;;;5052139;28;20210;-82
2024/01/14 12:25:27;;;;;;;6.70;1.40;;;3.60;99.90;;;;;;5071078;28;20324;-81
2024/01/14 12:27:54;;;;;;;4.63;1.30;;;3.60;99.90;;;;;;5063722;28;20242;-83
2024/01/14 12:30:27;;;;;;;5.00;1.37;;;3.70;99.90;;;;;;5057542;28;20194;-83
2024/01/14 12:32:54;;;;;;;2.83;1.20;;;3.70;99.90;;;;;;5023716;28;20207;-81
2024/01/14 12:35:32;;;;;;;3.63;1.90;;;3.80;99.90;;;;;;5048886;28;20579;-82
2024/01/14 12:37:59;;;;;;;3.90;1.60;;;3.80;99.90;;;;;;5051803;28;20202;-81
2024/01/14 12:40:26;;;;;;;3.80;1.27;;;3.80;99.90;;;;;;5046245;28;20194;-81
2024/01/14 12:42:53;;;;;;;6.57;1.53;;;3.90;99.90;;;;;;5049784;28;20201;-82
2024/01/14 12:45:20;;;;;;;2.30;1.27;;;3.80;99.90;;;;;;5051739;28;20213;-81
2024/01/14 12:47:58;;;;;;;4.90;1.50;;;3.80;99.90;;;;;;5026789;28;20566;-80
2024/01/14 12:50:29;;;;;;;5.80;1.40;;;3.80;99.90;;;;;;5075766;28;20202;-80
2024/01/14 12:53:05;;;;;;;4.03;1.00;;;3.80;99.90;;;;;;5059514;28;20203;-81
2024/01/14 12:55:32;;;;;;;2.87;0.90;;;3.80;99.90;;;;;;5046401;28;20214;-81
2024/01/14 12:58:00;;;;;;;4.77;1.20;;;3.80;99.90;;;;;;5049150;28;20206;-81